Time;durP1;ratioP1;P1;durP2;ratioP2;P2;SDS_P1;SDS_P2;PMS_P1;PMS_P2;Temp;Humidity;BMP_temperature;BMP_pressure;BME280_temperature;BME280_humidity;BME280_pressure;Samples;Min_cycle;Max_cycle;Signal;HPM_P1;HPM_P2
2023/05/31 00:01:33;;;;;;;;;;;;;;;17.30;93.35;95220.63;5135885;27;1301;-55
2023/05/31 00:03:59;;;;;;;;;;;;;;;17.30;93.55;95227.91;5134994;27;2831;-55
2023/05/31 00:06:25;;;;;;;;;;;;;;;17.33;93.44;95235.59;5116478;27;2852;-55
2023/05/31 00:08:51;;;;;;;;;;;;;;;17.32;94.02;95232.09;5115570;28;993;-55
2023/05/31 00:11:17;;;;;;;;;;;;;;;17.36;93.17;95237.91;5115463;28;1993;-55
2023/05/31 00:13:43;;;;;;;;;;;;;;;17.37;93.22;95242.28;5115570;28;1052;-55
2023/05/31 00:16:10;;;;;;;;;;;;;;;17.41;93.14;95248.13;5115283;28;1054;-55
2023/05/31 00:18:36;;;;;;;;;;;;;;;17.34;93.74;95248.94;5115131;28;1044;-55
2023/05/31 00:21:02;;;;;;;;;;;;;;;17.33;92.86;95246.41;5115343;28;1024;-55
2023/05/31 00:23:28;;;;;;;;;;;;;;;17.30;93.37;95261.19;5115255;28;1020;-55
2023/05/31 00:25:54;;;;;;;;;;;;;;;17.28;92.90;95255.13;5115050;28;1132;-55
2023/05/31 00:28:20;;;;;;;;;;;;;;;17.26;92.43;95259.06;5135256;27;1154;-55
2023/05/31 00:30:46;;;;;;;;;;;;;;;17.26;92.06;95257.19;5135529;27;1997;-55
2023/05/31 00:33:12;;;;;;;;;;;;;;;17.15;91.94;95258.59;5135232;27;1112;-55
2023/05/31 00:35:38;;;;;;;;;;;;;;;17.06;91.48;95258.97;5135651;27;977;-56
2023/05/31 00:38:05;;;;;;;;;;;;;;;16.91;91.89;95259.91;5135588;27;1013;-56
2023/05/31 00:40:32;;;;;;;;;;;;;;;16.65;92.57;95259.69;5135245;27;1044;-56
2023/05/31 00:42:58;;;;;;;;;;;;;;;16.57;92.75;95258.78;5135323;27;1307;-56
2023/05/31 00:45:24;;;;;;;;;;;;;;;16.56;92.38;95265.22;5135278;27;973;-56
2023/05/31 00:47:50;;;;;;;;;;;;;;;16.48;92.41;95267.22;5135117;27;961;-56
2023/05/31 00:50:16;;;;;;;;;;;;;;;16.40;93.24;95268.19;5132647;27;2516;-56
2023/05/31 00:52:44;;;;;;;;;;;;;;;16.44;93.48;95264.09;5135255;27;981;-56
2023/05/31 00:55:10;;;;;;;;;;;;;;;16.50;92.84;95259.78;5135074;27;1057;-56
2023/05/31 00:57:36;;;;;;;;;;;;;;;16.55;93.49;95266.25;5135059;27;1101;-56
2023/05/31 01:00:04;;;;;;;;;;;;;;;16.54;94.29;95263.75;5135068;27;1195;-56
2023/05/31 01:02:32;;;;;;;;;;;;;;;16.61;94.73;95264.63;5134533;27;960;-56
2023/05/31 01:04:58;;;;;;;;;;;;;;;16.72;94.37;95268.66;5134785;27;1104;-56
2023/05/31 01:07:24;;;;;;;;;;;;;;;16.71;93.51;95264.28;5134959;27;1009;-56
2023/05/31 01:09:51;;;;;;;;;;;;;;;16.80;93.96;95263.13;5130146;27;3030;-56
2023/05/31 01:12:26;;;;;;;;;;;;;;;16.93;93.12;95262.41;5128661;27;2832;-56
2023/05/31 01:14:58;;;;;;;;;;;;;;;16.89;93.62;95263.84;5135038;27;1186;-56
2023/05/31 01:17:30;;;;;;;;;;;;;;;16.81;93.45;95266.63;5134902;27;992;-55
2023/05/31 01:20:01;;;;;;;;;;;;;;;16.93;92.63;95267.81;5135034;27;1048;-56
2023/05/31 01:22:47;;;;;;;;;;;;;;;16.92;93.36;95258.88;5134904;27;1055;-56
2023/05/31 01:25:14;;;;;;;;;;;;;;;17.04;93.14;95261.03;5134440;27;1095;-56
2023/05/31 01:27:41;;;;;;;;;;;;;;;17.05;93.15;95270.78;5134485;27;1141;-55
2023/05/31 01:30:09;;;;;;;;;;;;;;;17.07;92.77;95266.84;5134780;27;2000;-56
2023/05/31 01:32:35;;;;;;;;;;;;;;;17.12;92.08;95267.09;5134413;27;1117;-56
2023/05/31 01:35:02;;;;;;;;;;;;;;;17.20;91.45;95255.28;5134498;27;1894;-56
2023/05/31 01:37:28;;;;;;;;;;;;;;;17.18;92.05;95258.19;5134731;27;992;-55
2023/05/31 01:39:54;;;;;;;;;;;;;;;17.14;91.85;95258.78;5134637;27;1033;-55
2023/05/31 01:42:21;;;;;;;;;;;;;;;17.12;92.08;95256.28;5134297;27;965;-56
2023/05/31 01:44:48;;;;;;;;;;;;;;;17.10;92.62;95252.13;5134560;27;981;-56
2023/05/31 01:47:14;;;;;;;;;;;;;;;17.07;92.34;95247.09;5134483;27;1055;-56
2023/05/31 01:49:41;;;;;;;;;;;;;;;17.04;92.24;95252.94;5134527;27;1914;-56
2023/05/31 01:52:10;;;;;;;;;;;;;;;17.01;92.15;95248.75;5134409;28;1032;-56
2023/05/31 01:54:36;;;;;;;;;;;;;;;16.76;93.24;95245.66;5134253;28;1047;-55
2023/05/31 01:57:03;;;;;;;;;;;;;;;16.59;93.63;95245.94;5134202;28;1878;-56
2023/05/31 01:59:30;;;;;;;;;;;;;;;16.52;93.92;95250.47;5134453;28;1052;-56
2023/05/31 02:01:57;;;;;;;;;;;;;;;16.36;95.26;95253.44;5134136;28;1075;-55
2023/05/31 02:04:23;;;;;;;;;;;;;;;16.28;96.16;95249.00;5134223;28;1033;-55
2023/05/31 02:06:48;;;;;;;;;;;;;;;16.17;96.89;95255.75;5134262;28;968;-56
2023/05/31 02:09:14;;;;;;;;;;;;;;;16.13;96.56;95251.78;5134040;28;1029;-56
2023/05/31 02:11:40;;;;;;;;;;;;;;;16.18;96.60;95249.34;5134045;28;1917;-56
2023/05/31 02:14:06;;;;;;;;;;;;;;;16.29;95.43;95250.66;5137549;27;1120;-56
2023/05/31 02:16:32;;;;;;;;;;;;;;;16.30;95.14;95256.91;5138170;27;1514;-56
2023/05/31 02:18:58;;;;;;;;;;;;;;;16.24;95.65;95254.97;5138329;27;993;-56
2023/05/31 02:21:24;;;;;;;;;;;;;;;16.26;94.92;95261.00;5138375;27;989;-56
2023/05/31 02:23:50;;;;;;;;;;;;;;;16.18;95.69;95261.97;5138390;27;996;-56
2023/05/31 02:26:17;;;;;;;;;;;;;;;16.25;94.98;95265.56;5138076;27;1169;-56
2023/05/31 02:28:43;;;;;;;;;;;;;;;16.35;94.40;95262.53;5133889;27;2855;-56
2023/05/31 02:31:09;;;;;;;;;;;;;;;16.34;94.32;95275.22;5099167;28;1902;-55
2023/05/31 02:33:35;;;;;;;;;;;;;;;16.31;94.43;95269.38;5117552;28;1032;-56
2023/05/31 02:36:01;;;;;;;;;;;;;;;16.29;94.68;95271.41;5117296;28;1045;-56
2023/05/31 02:38:28;;;;;;;;;;;;;;;16.18;93.90;95279.00;5117221;28;1045;-56
2023/05/31 02:40:54;;;;;;;;;;;;;;;16.00;93.82;95267.84;5117197;28;1075;-55
2023/05/31 02:43:20;;;;;;;;;;;;;;;15.83;94.29;95277.19;5117365;28;1084;-56
2023/05/31 02:45:46;;;;;;;;;;;;;;;15.69;95.48;95271.63;5117298;28;1012;-56
2023/05/31 02:48:12;;;;;;;;;;;;;;;15.81;94.27;95263.91;5122212;27;2906;-56
2023/05/31 02:50:38;;;;;;;;;;;;;;;15.87;93.31;95273.09;5120090;27;3020;-56
2023/05/31 02:53:04;;;;;;;;;;;;;;;15.86;93.54;95268.69;5116935;28;1002;-56
2023/05/31 02:55:31;;;;;;;;;;;;;;;15.87;93.62;95271.22;5116784;28;1109;-56
2023/05/31 02:57:57;;;;;;;;;;;;;;;15.79;94.59;95265.94;5117065;28;1309;-55
2023/05/31 03:00:23;;;;;;;;;;;;;;;15.54;95.84;95268.13;5116777;28;1084;-56
2023/05/31 03:02:49;;;;;;;;;;;;;;;15.47;96.22;95273.41;5116470;28;1041;-55
2023/05/31 03:05:16;;;;;;;;;;;;;;;15.56;95.98;95271.47;5116758;28;1030;-56
2023/05/31 03:07:42;;;;;;;;;;;;;;;15.59;95.82;95271.94;5116682;28;1068;-56
2023/05/31 03:10:08;;;;;;;;;;;;;;;15.50;96.79;95278.44;5116685;28;1995;-56
2023/05/31 03:12:34;;;;;;;;;;;;;;;15.58;96.68;95288.28;5116538;28;1057;-55
2023/05/31 03:15:00;;;;;;;;;;;;;;;15.71;95.22;95285.75;5116723;28;1203;-56
2023/05/31 03:17:26;;;;;;;;;;;;;;;15.85;94.85;95285.91;5116316;28;1096;-56
2023/05/31 03:19:52;;;;;;;;;;;;;;;15.94;94.48;95284.78;5116620;28;957;-55
2023/05/31 03:22:18;;;;;;;;;;;;;;;16.01;94.59;95288.34;5116284;28;1044;-56
2023/05/31 03:24:44;;;;;;;;;;;;;;;16.14;94.96;95296.63;5120759;27;2435;-56
2023/05/31 03:27:10;;;;;;;;;;;;;;;16.15;95.45;95290.19;5130047;27;2849;-56
2023/05/31 03:29:37;;;;;;;;;;;;;;;16.23;95.24;95285.69;5136832;27;1988;-56
2023/05/31 03:32:03;;;;;;;;;;;;;;;16.24;95.40;95284.66;5136948;27;1044;-56
2023/05/31 03:34:29;;;;;;;;;;;;;;;16.29;94.63;95293.00;5136521;27;1390;-56
2023/05/31 03:36:55;;;;;;;;;;;;;;;16.29;95.06;95293.84;5136919;27;1022;-55
2023/05/31 03:39:21;;;;;;;;;;;;;;;16.28;94.91;95291.34;5136447;27;1038;-56
2023/05/31 03:41:47;;;;;;;;;;;;;;;16.00;94.96;95300.19;5136923;27;1020;-56
2023/05/31 03:44:13;;;;;;;;;;;;;;;15.90;96.62;95294.28;5136684;27;985;-56
2023/05/31 03:46:40;;;;;;;;;;;;;;;15.98;97.33;95308.47;5136417;27;1138;-55
2023/05/31 03:49:06;;;;;;;;;;;;;;;15.99;96.75;95290.41;5136501;27;1021;-56
2023/05/31 03:51:32;;;;;;;;;;;;;;;16.07;96.21;95293.00;5136488;27;1914;-56
2023/05/31 03:53:58;;;;;;;;;;;;;;;16.23;95.68;95293.78;5136273;27;965;-56
2023/05/31 03:56:24;;;;;;;;;;;;;;;16.29;96.14;95298.41;5136421;27;1035;-56
2023/05/31 03:58:50;;;;;;;;;;;;;;;16.30;96.16;95300.09;5118196;27;981;-56
2023/05/31 04:01:17;;;;;;;;;;;;;;;16.31;95.87;95299.88;5135955;27;1238;-56
2023/05/31 04:03:43;;;;;;;;;;;;;;;16.36;96.55;95302.00;5136480;27;1035;-56
2023/05/31 04:06:10;;;;;;;;;;;;;;;16.41;96.37;95310.38;5136452;27;985;-56
2023/05/31 04:08:36;;;;;;;;;;;;;;;16.27;97.62;95305.84;5136094;27;969;-56
2023/05/31 04:11:02;;;;;;;;;;;;;;;16.14;99.19;95311.94;5135902;27;1910;-56
2023/05/31 04:13:28;;;;;;;;;;;;;;;16.34;96.79;95318.38;5136044;27;985;-56
2023/05/31 04:15:54;;;;;;;;;;;;;;;16.37;96.70;95322.53;5136242;27;1001;-56
2023/05/31 04:18:20;;;;;;;;;;;;;;;16.38;97.30;95319.66;5135901;27;1029;-57
2023/05/31 04:20:46;;;;;;;;;;;;;;;16.43;97.80;95324.50;5136127;27;1009;-56
2023/05/31 04:23:12;;;;;;;;;;;;;;;16.55;96.81;95324.81;5135645;27;1108;-56
2023/05/31 04:25:38;;;;;;;;;;;;;;;16.70;96.35;95330.13;5135965;27;973;-56
2023/05/31 04:28:05;;;;;;;;;;;;;;;16.87;96.68;95333.41;5135957;27;1149;-56
2023/05/31 04:30:31;;;;;;;;;;;;;;;16.95;96.55;95330.56;5135503;27;1984;-56
2023/05/31 04:32:58;;;;;;;;;;;;;;;16.92;96.50;95333.63;5135700;27;1035;-56
2023/05/31 04:35:28;;;;;;;;;;;;;;;16.95;98.20;95335.97;5135560;27;1036;-57
2023/05/31 04:37:58;;;;;;;;;;;;;;;16.95;96.95;95334.09;5135098;27;953;-56
2023/05/31 04:40:25;;;;;;;;;;;;;;;16.96;97.88;95333.06;5135586;27;1063;-56
2023/05/31 04:42:51;;;;;;;;;;;;;;;17.10;96.43;95338.56;5135661;27;1004;-56
2023/05/31 04:45:17;;;;;;;;;;;;;;;17.17;96.60;95342.16;5135340;27;1043;-56
2023/05/31 04:47:45;;;;;;;;;;;;;;;17.34;94.55;95335.41;5135342;27;1104;-56
2023/05/31 04:50:11;;;;;;;;;;;;;;;17.42;94.62;95349.81;5135415;27;1914;-56
2023/05/31 04:52:40;;;;;;;;;;;;;;;17.38;95.25;95341.25;5135163;27;1012;-57
2023/05/31 04:55:06;;;;;;;;;;;;;;;17.49;95.34;95345.25;5135068;27;1227;-56
2023/05/31 04:57:32;;;;;;;;;;;;;;;17.58;96.35;95351.34;5135153;27;1048;-56
2023/05/31 04:59:58;;;;;;;;;;;;;;;17.50;96.17;95355.03;5134908;27;1250;-57
2023/05/31 05:02:25;;;;;;;;;;;;;;;17.46;95.78;95353.78;5135101;27;1012;-56
2023/05/31 05:04:51;;;;;;;;;;;;;;;17.54;94.22;95356.31;5134218;27;2675;-56
2023/05/31 05:07:17;;;;;;;;;;;;;;;17.51;96.04;95353.97;5119114;27;2896;-56
2023/05/31 05:09:44;;;;;;;;;;;;;;;17.51;96.89;95351.28;5114409;28;1913;-56
2023/05/31 05:12:10;;;;;;;;;;;;;;;17.55;95.19;95356.09;5114401;28;1001;-56
2023/05/31 05:14:36;;;;;;;;;;;;;;;17.59;94.78;95361.94;5114367;28;1054;-56
2023/05/31 05:17:02;;;;;;;;;;;;;;;17.56;94.33;95370.44;5114042;28;1105;-56
2023/05/31 05:19:28;;;;;;;;;;;;;;;17.64;94.42;95369.44;5113987;27;2329;-56
2023/05/31 05:21:55;;;;;;;;;;;;;;;17.62;93.88;95375.06;5113632;28;2820;-56
2023/05/31 05:24:21;;;;;;;;;;;;;;;17.67;92.93;95380.72;5114245;28;973;-56
2023/05/31 05:26:47;;;;;;;;;;;;;;;17.65;93.51;95368.44;5121034;27;1205;-58
2023/05/31 05:29:13;;;;;;;;;;;;;;;17.83;92.93;95378.69;5134801;27;1048;-56
2023/05/31 05:31:39;;;;;;;;;;;;;;;17.94;93.66;95378.16;5134573;27;1976;-56
2023/05/31 05:34:05;;;;;;;;;;;;;;;17.89;93.26;95380.63;5134758;27;1230;-56
2023/05/31 05:36:31;;;;;;;;;;;;;;;18.12;92.21;95386.56;5116222;27;973;-56
2023/05/31 05:39:03;;;;;;;;;;;;;;;18.27;91.32;95375.59;5134400;27;1061;-56
2023/05/31 05:41:30;;;;;;;;;;;;;;;18.41;89.91;95379.16;5116455;27;977;-56
2023/05/31 05:43:56;;;;;;;;;;;;;;;18.49;89.94;95383.56;5134724;27;957;-57
2023/05/31 05:46:22;;;;;;;;;;;;;;;18.58;88.79;95387.75;5116134;28;1060;-56
2023/05/31 05:48:48;;;;;;;;;;;;;;;18.61;87.99;95381.06;5133823;27;1096;-56
2023/05/31 05:51:14;;;;;;;;;;;;;;;18.74;88.37;95383.81;5134210;27;1890;-56
2023/05/31 05:53:40;;;;;;;;;;;;;;;18.84;87.99;95388.88;5134596;28;1048;-56
2023/05/31 05:56:06;;;;;;;;;;;;;;;18.81;87.42;95390.09;5134232;28;1061;-56
2023/05/31 05:58:32;;;;;;;;;;;;;;;18.79;88.65;95389.44;5134128;28;1212;-56
2023/05/31 06:00:58;;;;;;;;;;;;;;;18.86;87.84;95386.78;5134033;28;1298;-56
2023/05/31 06:03:24;;;;;;;;;;;;;;;18.85;86.23;95385.94;5134331;28;1028;-57
2023/05/31 06:05:50;;;;;;;;;;;;;;;18.87;88.30;95385.72;5134152;28;1076;-56
2023/05/31 06:08:16;;;;;;;;;;;;;;;18.91;87.76;95393.25;5134030;28;1045;-56
2023/05/31 06:10:42;;;;;;;;;;;;;;;18.98;86.90;95389.72;5134158;28;1906;-56
2023/05/31 06:13:08;;;;;;;;;;;;;;;18.89;87.33;95397.19;5134344;28;1273;-56
2023/05/31 06:15:34;;;;;;;;;;;;;;;18.72;87.12;95397.56;5134305;28;1027;-56
2023/05/31 06:18:00;;;;;;;;;;;;;;;18.79;88.85;95396.75;5134268;28;1039;-57
2023/05/31 06:20:27;;;;;;;;;;;;;;;18.78;88.14;95390.50;5132672;28;2711;-56
2023/05/31 06:22:53;;;;;;;;;;;;;;;18.80;88.32;95398.38;5115911;28;2971;-56
2023/05/31 06:25:20;;;;;;;;;;;;;;;18.70;87.08;95393.38;5113312;28;969;-56
2023/05/31 06:27:46;;;;;;;;;;;;;;;18.71;87.24;95389.66;5127516;28;1221;-56
2023/05/31 06:30:13;;;;;;;;;;;;;;;18.89;86.64;95395.34;5133795;28;1975;-56
2023/05/31 06:32:39;;;;;;;;;;;;;;;18.86;87.09;95397.63;5133989;28;1032;-56
2023/05/31 06:35:06;;;;;;;;;;;;;;;18.80;87.70;95395.69;5132362;28;1172;-56
2023/05/31 06:37:32;;;;;;;;;;;;;;;18.98;86.66;95397.84;5131934;28;2555;-56
2023/05/31 06:39:58;;;;;;;;;;;;;;;19.22;83.34;95401.81;5133456;28;1061;-56
2023/05/31 06:42:24;;;;;;;;;;;;;;;19.21;83.22;95403.66;5133809;28;985;-56
2023/05/31 06:44:50;;;;;;;;;;;;;;;19.11;84.92;95395.97;5134135;28;1048;-57
2023/05/31 06:47:16;;;;;;;;;;;;;;;19.18;84.16;95398.69;5133841;28;1080;-56
2023/05/31 06:49:42;;;;;;;;;;;;;;;19.14;83.28;95389.28;5133481;28;1910;-56
2023/05/31 06:52:08;;;;;;;;;;;;;;;19.22;81.58;95399.94;5133487;28;1049;-56
2023/05/31 06:54:35;;;;;;;;;;;;;;;19.32;81.42;95396.78;5133715;28;1037;-56
2023/05/31 06:57:02;;;;;;;;;;;;;;;19.35;81.71;95399.09;5133656;28;1048;-56
2023/05/31 06:59:28;;;;;;;;;;;;;;;19.37;82.97;95393.44;5134003;27;1061;-56
2023/05/31 07:01:54;;;;;;;;;;;;;;;19.46;82.08;95400.31;5136115;27;2252;-56
2023/05/31 07:04:20;;;;;;;;;;;;;;;19.65;80.56;95394.03;5135624;27;2832;-56
2023/05/31 07:06:46;;;;;;;;;;;;;;;19.76;79.76;95394.47;5127050;27;2489;-55
2023/05/31 07:09:12;;;;;;;;;;;;;;;19.96;80.08;95391.69;5116926;28;1047;-56
2023/05/31 07:11:42;;;;;;;;;;;;;;;20.15;78.24;95398.09;5116578;28;1898;-56
2023/05/31 07:14:09;;;;;;;;;;;;;;;20.35;77.82;95390.69;5116883;28;1052;-55
2023/05/31 07:16:35;;;;;;;;;;;;;;;20.45;78.39;95396.50;5116490;28;1096;-55
2023/05/31 07:19:02;;;;;;;;;;;;;;;20.40;77.22;95392.78;5125133;27;2478;-55
2023/05/31 07:21:28;;;;;;;;;;;;;;;20.28;77.02;95388.00;5116284;28;1031;-56
2023/05/31 07:23:55;;;;;;;;;;;;;;;20.28;76.53;95390.72;5116581;28;1036;-56
2023/05/31 07:26:22;;;;;;;;;;;;;;;20.33;78.85;95384.63;5119418;27;1200;-56
2023/05/31 07:28:48;;;;;;;;;;;;;;;20.43;78.34;95387.75;5137138;27;1021;-56
2023/05/31 07:31:15;;;;;;;;;;;;;;;20.33;76.98;95395.50;5136619;27;1905;-55
2023/05/31 07:33:41;;;;;;;;;;;;;;;20.60;77.26;95385.38;5136906;27;1028;-56
2023/05/31 07:36:07;;;;;;;;;;;;;;;20.81;76.95;95391.50;5136900;27;963;-56
2023/05/31 07:38:33;;;;;;;;;;;;;;;20.69;77.19;95385.13;5136828;27;1039;-56
2023/05/31 07:40:59;;;;;;;;;;;;;;;20.46;74.47;95386.47;5136873;27;1027;-56
2023/05/31 07:43:26;;;;;;;;;;;;;;;20.72;76.05;95390.13;5136545;27;1010;-56
2023/05/31 07:45:56;;;;;;;;;;;;;;;20.99;75.59;95390.75;5136460;27;957;-55
2023/05/31 07:48:22;;;;;;;;;;;;;;;21.26;74.34;95394.91;5136253;27;1049;-55
2023/05/31 07:50:48;;;;;;;;;;;;;;;21.07;73.51;95393.19;5136293;27;1909;-56
2023/05/31 07:53:14;;;;;;;;;;;;;;;21.00;73.60;95393.25;5136554;27;973;-56
2023/05/31 07:55:40;;;;;;;;;;;;;;;21.01;75.56;95388.66;5136332;27;1213;-56
2023/05/31 07:58:06;;;;;;;;;;;;;;;21.01;75.11;95391.38;5136271;27;973;-56
2023/05/31 08:00:32;;;;;;;;;;;;;;;20.82;76.13;95385.84;5136116;27;1127;-56
2023/05/31 08:02:58;;;;;;;;;;;;;;;20.83;73.14;95387.53;5136015;27;1078;-56
2023/05/31 08:05:24;;;;;;;;;;;;;;;20.91;72.64;95389.16;5135985;27;1050;-56
2023/05/31 08:07:51;;;;;;;;;;;;;;;20.84;73.96;95382.91;5133750;27;2479;-56
2023/05/31 08:10:17;;;;;;;;;;;;;;;20.88;73.59;95381.41;5135434;27;1934;-57
2023/05/31 08:12:43;;;;;;;;;;;;;;;21.08;73.93;95389.44;5117726;27;1082;-56
2023/05/31 08:15:11;;;;;;;;;;;;;;;21.12;75.39;95385.22;5136170;27;1049;-56
2023/05/31 08:17:37;;;;;;;;;;;;;;;20.93;73.89;95381.59;5136142;27;1040;-56
2023/05/31 08:20:10;;;;;;;;;;;;;;;21.11;72.40;95391.69;5135957;27;1076;-56
2023/05/31 08:22:36;;;;;;;;;;;;;;;21.26;74.25;95391.38;5135675;27;1033;-56
2023/05/31 08:25:02;;;;;;;;;;;;;;;21.42;73.11;95395.44;5136055;27;1000;-56
2023/05/31 08:27:28;;;;;;;;;;;;;;;21.57;72.21;95395.97;5135492;27;1157;-56
2023/05/31 08:29:54;;;;;;;;;;;;;;;21.65;73.05;95397.56;5135455;27;1996;-56
2023/05/31 08:32:20;;;;;;;;;;;;;;;21.82;70.79;95395.09;5135471;27;925;-56
2023/05/31 08:34:46;;;;;;;;;;;;;;;22.03;70.36;95391.91;5135746;27;970;-57
2023/05/31 08:37:12;;;;;;;;;;;;;;;22.30;69.94;95401.69;5135247;27;1064;-56
2023/05/31 08:39:38;;;;;;;;;;;;;;;22.36;69.93;95390.69;5135372;27;1041;-56
2023/05/31 08:42:10;;;;;;;;;;;;;;;22.54;66.87;95387.13;5135410;27;1196;-56
2023/05/31 08:44:36;;;;;;;;;;;;;;;22.27;68.30;95392.09;5117041;27;1052;-57
2023/05/31 08:47:14;;;;;;;;;;;;;;;22.14;67.32;95387.59;5135595;27;987;-56
2023/05/31 08:49:41;;;;;;;;;;;;;;;22.02;67.26;95376.66;5135335;27;1985;-56
2023/05/31 08:52:08;;;;;;;;;;;;;;;22.39;68.70;95378.53;5132863;27;2505;-56
2023/05/31 08:54:35;;;;;;;;;;;;;;;22.54;66.11;95372.69;5134838;27;1030;-56
2023/05/31 08:57:02;;;;;;;;;;;;;;;23.00;65.36;95374.69;5135258;27;972;-56
2023/05/31 08:59:29;;;;;;;;;;;;;;;23.42;63.70;95365.66;5135241;27;961;-56
2023/05/31 09:01:57;;;;;;;;;;;;;;;23.44;64.10;95368.16;5134885;27;1290;-56
2023/05/31 09:04:23;;;;;;;;;;;;;;;23.30;64.40;95362.94;5134986;27;1163;-57
2023/05/31 09:06:50;;;;;;;;;;;;;;;23.46;64.04;95361.38;5134791;27;1053;-56
2023/05/31 09:09:16;;;;;;;;;;;;;;;23.57;63.58;95357.84;5134863;27;1012;-56
2023/05/31 09:11:42;;;;;;;;;;;;;;;23.76;64.03;95357.72;5134674;27;1906;-56
2023/05/31 09:14:11;;;;;;;;;;;;;;;23.99;61.42;95354.16;5135043;27;1071;-56
2023/05/31 09:16:37;;;;;;;;;;;;;;;24.18;61.77;95349.34;5132411;27;2465;-56
2023/05/31 09:19:04;;;;;;;;;;;;;;;24.61;61.36;95344.50;5134445;27;1045;-56
2023/05/31 09:21:38;;;;;;;;;;;;;;;24.66;58.67;95337.22;5134558;27;1167;-56
2023/05/31 09:24:04;;;;;;;;;;;;;;;24.80;61.05;95336.91;5134467;27;1070;-56
2023/05/31 09:26:32;;;;;;;;;;;;;;;24.79;59.15;95330.59;5134049;27;1146;-56
2023/05/31 09:28:58;;;;;;;;;;;;;;;24.49;57.83;95322.63;5134333;27;1044;-57
2023/05/31 09:31:25;;;;;;;;;;;;;;;24.57;58.36;95330.47;5134433;27;1988;-56
2023/05/31 09:33:51;;;;;;;;;;;;;;;25.00;58.94;95328.22;5134564;27;1009;-57
2023/05/31 09:36:27;;;;;;;;;;;;;;;25.27;56.64;95331.16;5134418;27;989;-56
2023/05/31 09:39:00;;;;;;;;;;;;;;;24.93;56.22;95331.94;5134393;27;961;-56
2023/05/31 09:41:27;;;;;;;;;;;;;;;25.22;57.60;95320.13;5134283;27;1065;-56
2023/05/31 09:43:53;;;;;;;;;;;;;;;25.38;58.40;95326.69;5134351;27;1061;-56
2023/05/31 09:46:20;;;;;;;;;;;;;;;25.49;56.01;95318.38;5134404;27;1054;-56
2023/05/31 09:48:56;;;;;;;;;;;;;;;25.36;52.18;95326.91;5134343;27;1016;-56
2023/05/31 09:51:22;;;;;;;;;;;;;;;25.10;55.74;95309.25;5134044;27;1909;-56
2023/05/31 09:53:51;;;;;;;;;;;;;;;25.31;56.52;95322.22;5128594;27;2567;-56
2023/05/31 09:56:21;;;;;;;;;;;;;;;25.55;55.03;95310.25;5113476;28;989;-57
2023/05/31 09:58:51;;;;;;;;;;;;;;;25.60;53.78;95311.13;5113771;28;1031;-56
2023/05/31 10:01:17;;;;;;;;;;;;;;;25.82;55.52;95308.44;5113306;28;1235;-57
2023/05/31 10:03:44;;;;;;;;;;;;;;;25.30;54.83;95306.84;5113577;28;1037;-57
2023/05/31 10:06:11;;;;;;;;;;;;;;;25.31;55.06;95307.72;5113672;28;1051;-57
2023/05/31 10:08:37;;;;;;;;;;;;;;;25.41;56.86;95299.63;5113453;28;1073;-56
2023/05/31 10:11:03;;;;;;;;;;;;;;;25.66;54.39;95296.44;5113588;28;1914;-57
2023/05/31 10:13:30;;;;;;;;;;;;;;;26.02;54.80;95288.72;5113509;28;1044;-57
2023/05/31 10:16:03;;;;;;;;;;;;;;;26.05;54.40;95276.44;5113488;28;1057;-57
2023/05/31 10:18:30;;;;;;;;;;;;;;;25.89;51.47;95283.59;5113383;28;1056;-57
2023/05/31 10:21:03;;;;;;;;;;;;;;;25.36;51.93;95285.88;5113424;28;990;-57
2023/05/31 10:23:29;;;;;;;;;;;;;;;25.54;54.58;95276.56;5113391;28;1035;-57
2023/05/31 10:25:56;;;;;;;;;;;;;;;25.24;54.42;95276.94;5113649;28;1040;-57
2023/05/31 10:28:26;;;;;;;;;;;;;;;25.38;52.27;95275.50;5133858;28;1202;-57
2023/05/31 10:30:54;;;;;;;;;;;;;;;25.59;56.58;95264.84;5133888;28;1913;-58
2023/05/31 10:33:20;;;;;;;;;;;;;;;25.27;52.38;95268.22;5133986;27;1223;-57
2023/05/31 10:35:47;;;;;;;;;;;;;;;24.86;55.42;95259.34;5136818;27;980;-57
2023/05/31 10:38:13;;;;;;;;;;;;;;;24.41;54.56;95257.44;5137768;27;1013;-57
2023/05/31 10:40:43;;;;;;;;;;;;;;;24.37;55.51;95262.56;5137959;27;964;-57
2023/05/31 10:43:18;;;;;;;;;;;;;;;24.59;54.62;95262.72;5138064;27;1042;-57
2023/05/31 10:45:46;;;;;;;;;;;;;;;24.34;57.64;95263.91;5119289;27;1116;-57
2023/05/31 10:48:39;;;;;;;;;;;;;;;24.45;56.47;95264.91;5132053;27;2451;-57
2023/05/31 10:51:06;;;;;;;;;;;;;;;24.85;55.32;95258.53;5117066;28;1971;-57
2023/05/31 10:53:36;;;;;;;;;;;;;;;25.26;55.00;95261.09;5116852;28;948;-57
2023/05/31 10:56:04;;;;;;;;;;;;;;;25.87;52.28;95259.19;5116984;28;1044;-58
2023/05/31 10:58:39;;;;;;;;;;;;;;;26.36;52.07;95254.88;5098600;28;1043;-57
2023/05/31 11:01:06;;;;;;;;;;;;;;;26.49;51.26;95248.97;5116611;28;1217;-58
2023/05/31 11:03:34;;;;;;;;;;;;;;;26.57;51.56;95232.03;5098613;28;1004;-59
2023/05/31 11:06:03;;;;;;;;;;;;;;;26.60;49.73;95238.97;5116859;28;1035;-58
2023/05/31 11:08:29;;;;;;;;;;;;;;;26.12;51.88;95232.41;5116877;28;1048;-58
2023/05/31 11:11:14;;;;;;;;;;;;;;;25.76;51.41;95229.19;5098661;28;1917;-57
2023/05/31 11:13:55;;;;;;;;;;;;;;;25.62;53.84;95231.50;5116760;28;1020;-57
2023/05/31 11:16:21;;;;;;;;;;;;;;;25.46;51.95;95224.97;5116696;28;1013;-56
2023/05/31 11:18:47;;;;;;;;;;;;;;;25.24;51.92;95227.69;5116383;28;1041;-56
2023/05/31 11:21:33;;;;;;;;;;;;;;;24.69;50.79;95226.53;5116440;28;1044;-57
2023/05/31 11:24:00;;;;;;;;;;;;;;;24.29;52.42;95222.00;5084793;28;1180;-57
2023/05/31 11:26:26;;;;;;;;;;;;;;;24.22;52.18;95222.13;5120132;27;2001;-58
2023/05/31 11:29:00;;;;;;;;;;;;;;;24.32;54.78;95226.94;5136897;27;1253;-57
2023/05/31 11:31:45;;;;;;;;;;;;;;;24.53;52.23;95222.72;5136985;27;1902;-57
2023/05/31 11:34:17;;;;;;;;;;;;;;;24.77;53.06;95228.03;5136891;27;1025;-57
2023/05/31 11:36:44;;;;;;;;;;;;;;;24.94;53.45;95232.41;5136745;27;995;-57
2023/05/31 11:39:10;;;;;;;;;;;;;;;25.03;53.35;95234.75;5134666;27;2551;-57
2023/05/31 11:41:36;;;;;;;;;;;;;;;25.16;51.04;95231.66;5136577;27;1093;-56
2023/05/31 11:44:03;;;;;;;;;;;;;;;24.77;51.35;95225.28;5136937;27;1032;-57
2023/05/31 11:46:29;;;;;;;;;;;;;;;24.20;51.97;95221.53;5135907;27;1037;-57
2023/05/31 11:48:57;;;;;;;;;;;;;;;23.86;53.08;95223.34;5136760;27;1013;-56
2023/05/31 11:51:23;;;;;;;;;;;;;;;23.48;54.08;95219.28;5136564;27;1902;-57
2023/05/31 11:53:49;;;;;;;;;;;;;;;23.27;54.78;95218.00;5136646;27;1050;-57
2023/05/31 11:56:15;;;;;;;;;;;;;;;23.15;54.10;95227.03;5136317;27;1962;-58
2023/05/31 11:58:45;;;;;;;;;;;;;;;23.06;56.83;95235.81;5136359;27;1033;-57
2023/05/31 12:01:13;;;;;;;;;;;;;;;22.94;59.07;95239.31;5136198;27;1341;-56
2023/05/31 12:03:42;;;;;;;;;;;;;;;22.65;62.99;95257.44;5136258;27;1037;-56
2023/05/31 12:06:08;;;;;;;;;;;;;;;21.88;69.28;95258.06;5136518;27;1013;-57
2023/05/31 12:08:34;;;;;;;;;;;;;;;20.80;73.32;95241.22;5135990;27;913;-57
2023/05/31 12:11:02;;;;;;;;;;;;;;;20.23;74.00;95238.50;5136073;27;1992;-57
2023/05/31 12:13:28;;;;;;;;;;;;;;;19.82;75.87;95238.97;5134113;27;2835;-57
2023/05/31 12:15:55;;;;;;;;;;;;;;;19.61;79.13;95230.03;5126584;27;2891;-56
2023/05/31 12:18:24;;;;;;;;;;;;;;;19.59;79.02;95232.16;5136067;27;1099;-57
2023/05/31 12:20:50;;;;;;;;;;;;;;;19.45;87.29;95223.25;5135899;27;1080;-56
2023/05/31 12:23:18;;;;;;;;;;;;;;;19.28;82.29;95225.59;5135913;27;1383;-56
2023/05/31 12:25:45;;;;;;;;;;;;;;;19.17;81.98;95222.72;5136129;27;1080;-57
2023/05/31 12:28:11;;;;;;;;;;;;;;;19.18;81.44;95208.09;5135880;27;1237;-57
2023/05/31 12:30:42;;;;;;;;;;;;;;;19.17;86.93;95215.41;5135939;27;1913;-57
2023/05/31 12:33:09;;;;;;;;;;;;;;;19.13;86.61;95206.06;5135583;27;1048;-56
2023/05/31 12:35:39;;;;;;;;;;;;;;;19.17;84.89;95206.47;5135533;27;1065;-57
2023/05/31 12:38:05;;;;;;;;;;;;;;;19.23;86.21;95200.19;5135846;27;1161;-57
2023/05/31 12:40:36;;;;;;;;;;;;;;;19.48;82.53;95205.69;5135525;27;1035;-57
2023/05/31 12:43:02;;;;;;;;;;;;;;;19.58;89.16;95206.09;5135456;27;1045;-57
2023/05/31 12:45:28;;;;;;;;;;;;;;;19.73;83.62;95207.69;5135520;27;985;-56
2023/05/31 12:47:58;;;;;;;;;;;;;;;19.81;88.35;95213.72;5135315;27;981;-56
2023/05/31 12:50:27;;;;;;;;;;;;;;;19.85;89.84;95216.84;5135283;27;2282;-56
2023/05/31 12:52:56;;;;;;;;;;;;;;;19.97;88.38;95215.06;5135643;27;1101;-56
2023/05/31 12:55:22;;;;;;;;;;;;;;;20.19;86.13;95209.31;5135036;27;1287;-57
2023/05/31 12:57:48;;;;;;;;;;;;;;;20.23;89.05;95211.34;5134284;27;1044;-56